createdAt,value
2019-01-27T00:01:35.822Z,85.52
2019-01-27T00:04:06.397Z,85.66
2019-01-27T00:06:36.770Z,85.79
2019-01-27T00:09:10.723Z,85.83
2019-01-27T00:11:40.890Z,85.95
2019-01-27T00:14:11.302Z,85.85
2019-01-27T00:16:41.466Z,85.88
2019-01-27T00:19:11.722Z,85.88
2019-01-27T00:21:41.912Z,85.96
2019-01-27T00:24:12.495Z,86.34
2019-01-27T00:26:42.850Z,86.53
2019-01-27T00:29:13.113Z,86.39
2019-01-27T00:31:43.465Z,86.66
2019-01-27T00:34:13.941Z,86.69
2019-01-27T00:36:44.593Z,86.93
2019-01-27T00:39:14.931Z,86.89
2019-01-27T00:41:45.311Z,86.77
2019-01-27T00:44:15.560Z,87.02
2019-01-27T00:46:45.856Z,87.97
2019-01-27T00:49:15.994Z,88.25
2019-01-27T00:51:46.221Z,88.02
2019-01-27T00:54:16.554Z,87.59
2019-01-27T00:56:47.116Z,87.39
2019-01-27T00:59:17.437Z,87.39
2019-01-27T01:01:47.805Z,87.36
2019-01-27T01:04:17.990Z,87.57
2019-01-27T01:06:48.380Z,87.65
2019-01-27T01:09:18.917Z,87.94
2019-01-27T01:11:49.397Z,88.06
2019-01-27T01:14:19.720Z,88.08
2019-01-27T01:16:50.098Z,88.28
2019-01-27T01:19:20.965Z,88.35
2019-01-27T01:21:51.352Z,88.39
2019-01-27T01:24:21.617Z,88.29
2019-01-27T01:26:51.802Z,88.16
2019-01-27T01:29:21.967Z,88.16
2019-01-27T01:31:52.146Z,88.20
2019-01-27T01:34:22.340Z,88.27
2019-01-27T01:36:52.452Z,88.59
2019-01-27T01:39:22.655Z,88.80
2019-01-27T01:41:52.947Z,89.02
2019-01-27T01:44:23.167Z,89.08
2019-01-27T01:46:53.284Z,89.13
2019-01-27T01:49:23.588Z,89.21
2019-01-27T01:51:53.705Z,89.42
2019-01-27T01:54:23.943Z,89.37
2019-01-27T01:56:54.120Z,89.25
2019-01-27T01:59:24.446Z,89.85
2019-01-27T02:01:54.565Z,90.56
2019-01-27T02:04:24.725Z,91.61
2019-01-27T02:06:54.957Z,91.76
2019-01-27T02:09:25.205Z,91.54
2019-01-27T02:11:56.238Z,91.45
2019-01-27T02:14:26.660Z,92.25
2019-01-27T02:16:56.922Z,92.50
2019-01-27T02:19:27.348Z,92.16
2019-01-27T02:21:57.919Z,92.65
2019-01-27T02:24:28.255Z,92.43
2019-01-27T02:26:58.688Z,92.54
2019-01-27T02:29:29.151Z,92.63
2019-01-27T02:31:59.540Z,92.16
2019-01-27T02:34:29.969Z,92.17
2019-01-27T02:37:00.122Z,91.64
2019-01-27T02:39:30.318Z,90.74
2019-01-27T02:42:00.446Z,90.28
2019-01-27T02:44:30.644Z,90.15
2019-01-27T02:47:01.195Z,90.55
2019-01-27T02:49:31.713Z,91.59
2019-01-27T02:52:02.106Z,91.45
2019-01-27T02:54:32.517Z,91.34
2019-01-27T02:57:02.677Z,91.25
2019-01-27T02:59:33.171Z,91.22
2019-01-27T03:02:03.865Z,91.17
2019-01-27T03:04:34.291Z,91.56
2019-01-27T03:07:10.694Z,91.63
2019-01-27T03:09:43.312Z,91.33
2019-01-27T03:12:13.825Z,91.13
2019-01-27T03:14:43.967Z,90.90
2019-01-27T03:17:16.038Z,90.84
2019-01-27T03:19:46.192Z,90.88
2019-01-27T03:22:16.393Z,91.14
2019-01-27T03:24:46.532Z,91.03
2019-01-27T03:27:16.787Z,91.20
2019-01-27T03:29:49.900Z,91.18
2019-01-27T03:32:20.420Z,91.19
2019-01-27T03:34:51.263Z,91.50
2019-01-27T03:37:21.547Z,91.39
2019-01-27T03:39:51.731Z,91.26
2019-01-27T03:42:21.888Z,90.98
2019-01-27T03:44:52.192Z,91.02
2019-01-27T03:47:22.416Z,90.75
2019-01-27T03:49:52.550Z,90.86
2019-01-27T03:52:22.673Z,90.80
2019-01-27T03:54:52.959Z,90.65
2019-01-27T03:57:23.087Z,90.39
2019-01-27T03:59:53.409Z,90.68
2019-01-27T04:02:23.527Z,90.85
2019-01-27T04:04:53.663Z,90.96
2019-01-27T04:07:23.850Z,91.29
2019-01-27T04:09:54.026Z,91.69
2019-01-27T04:12:24.307Z,91.83
2019-01-27T04:14:58.281Z,91.49
2019-01-27T04:17:28.790Z,91.08
2019-01-27T04:19:59.013Z,90.89
2019-01-27T04:22:29.138Z,91.02
2019-01-27T04:25:00.294Z,91.07
2019-01-27T04:27:30.536Z,91.17
2019-01-27T04:30:00.701Z,91.16
2019-01-27T04:32:31.053Z,90.96
2019-01-27T04:35:01.229Z,90.95
2019-01-27T04:37:31.369Z,90.95
2019-01-27T04:40:01.623Z,90.96
2019-01-27T04:42:32.013Z,91.03
2019-01-27T04:45:02.674Z,91.60
2019-01-27T04:47:32.924Z,91.57
2019-01-27T04:50:03.125Z,91.60
2019-01-27T04:52:33.420Z,91.47
2019-01-27T04:55:03.662Z,91.45
2019-01-27T04:57:33.805Z,91.76
2019-01-27T05:00:04.726Z,91.95
2019-01-27T05:02:40.578Z,92.24
2019-01-27T05:05:11.081Z,92.06
2019-01-27T05:07:41.191Z,91.84
2019-01-27T05:10:11.671Z,91.68
2019-01-27T05:12:45.892Z,91.28
2019-01-27T05:15:18.017Z,91.05
2019-01-27T05:17:48.515Z,89.73
2019-01-27T05:20:18.899Z,89.54
2019-01-27T05:22:49.388Z,89.55
2019-01-27T05:25:19.909Z,89.59
2019-01-27T05:27:50.347Z,89.59
2019-01-27T05:30:22.909Z,89.65
2019-01-27T05:32:53.769Z,89.72
2019-01-27T05:35:27.047Z,89.72
2019-01-27T05:37:57.401Z,89.70
2019-01-27T05:40:27.508Z,88.96
2019-01-27T05:42:57.858Z,88.82
2019-01-27T05:45:27.982Z,88.33
2019-01-27T05:47:58.230Z,87.89
2019-01-27T05:50:28.362Z,87.12
2019-01-27T05:52:58.484Z,87.33
2019-01-27T05:55:28.619Z,87.62
2019-01-27T05:57:58.787Z,87.81
2019-01-27T06:00:40.456Z,87.80
2019-01-27T06:03:10.737Z,88.09
2019-01-27T06:05:41.138Z,88.66
2019-01-27T06:08:11.328Z,88.59
2019-01-27T06:10:41.577Z,88.65
2019-01-27T06:13:11.750Z,88.90
2019-01-27T06:15:41.967Z,88.58
2019-01-27T06:18:12.281Z,87.58
2019-01-27T06:20:42.417Z,87.73
2019-01-27T06:23:12.727Z,86.84
2019-01-27T06:25:42.936Z,86.53
2019-01-27T06:28:13.106Z,85.82
2019-01-27T06:30:43.447Z,85.68
2019-01-27T06:33:32.607Z,85.56
2019-01-27T06:36:02.938Z,85.19
2019-01-27T06:38:33.341Z,84.04
2019-01-27T06:41:03.592Z,83.42
2019-01-27T06:43:33.776Z,83.40
2019-01-27T06:46:04.053Z,82.60
2019-01-27T06:48:34.199Z,82.97
2019-01-27T06:51:07.045Z,82.78
2019-01-27T06:53:37.561Z,82.35
2019-01-27T06:56:07.869Z,82.39
2019-01-27T06:58:56.037Z,82.87
2019-01-27T07:01:33.139Z,82.53
2019-01-27T07:04:25.611Z,82.62
2019-01-27T07:07:12.429Z,81.90
2019-01-27T07:10:00.597Z,82.28
2019-01-27T07:12:52.559Z,82.35
2019-01-27T07:15:40.956Z,82.62
2019-01-27T07:18:29.087Z,82.62
2019-01-27T07:21:09.492Z,83.44
2019-01-27T07:23:47.645Z,83.81
2019-01-27T07:26:39.879Z,84.44
2019-01-27T07:29:35.693Z,82.89
2019-01-27T07:32:25.023Z,81.56
2019-01-27T07:35:23.849Z,81.32
2019-01-27T07:38:04.469Z,80.85
2019-01-27T07:40:52.580Z,80.21
2019-01-27T07:43:29.415Z,80.72
2019-01-27T07:46:18.165Z,80.31
2019-01-27T07:49:07.694Z,80.42
2019-01-27T07:52:06.415Z,79.95
2019-01-27T07:54:50.712Z,79.98
2019-01-27T07:57:43.376Z,79.44
2019-01-27T08:00:41.652Z,78.85
2019-01-27T08:03:22.077Z,79.28
2019-01-27T08:06:20.852Z,79.44
2019-01-27T08:08:57.329Z,79.78
2019-01-27T08:11:38.781Z,79.25
2019-01-27T08:14:31.208Z,79.25
2019-01-27T08:17:08.268Z,79.02
2019-01-27T08:19:57.848Z,78.59
2019-01-27T08:22:41.854Z,79.35
2019-01-27T08:25:45.126Z,78.27
2019-01-27T08:28:33.893Z,78.32
2019-01-27T08:31:22.202Z,79.02
2019-01-27T08:34:26.475Z,78.77
2019-01-27T08:37:14.708Z,78.00
2019-01-27T08:40:09.222Z,77.96
2019-01-27T08:43:01.864Z,77.70
2019-01-27T08:45:43.389Z,77.29
2019-01-27T08:48:13.513Z,76.95
2019-01-27T08:50:44.199Z,77.12
2019-01-27T08:53:14.751Z,76.95
2019-01-27T08:55:45.047Z,76.67
2019-01-27T08:58:15.351Z,77.20
2019-01-27T09:00:52.803Z,77.26
2019-01-27T09:03:40.833Z,76.50
2019-01-27T09:06:33.034Z,76.75
2019-01-27T09:09:25.178Z,75.47
2019-01-27T09:12:09.184Z,74.97
2019-01-27T09:14:58.453Z,74.05
2019-01-27T09:17:53.793Z,72.29
2019-01-27T09:20:55.305Z,69.77
2019-01-27T09:23:34.796Z,68.98
2019-01-27T09:26:28.514Z,69.29
2019-01-27T09:29:12.748Z,69.72
2019-01-27T09:31:59.889Z,70.47
2019-01-27T09:35:07.316Z,71.38
2019-01-27T09:37:46.864Z,71.87
2019-01-27T09:40:45.420Z,72.23
2019-01-27T09:43:44.011Z,73.23
2019-01-27T09:46:26.018Z,72.66
2019-01-27T09:49:04.816Z,72.85
2019-01-27T09:51:44.060Z,73.23
2019-01-27T09:54:33.244Z,73.40
2019-01-27T09:57:28.708Z,74.38
2019-01-27T10:00:16.892Z,71.03
2019-01-27T10:03:12.087Z,65.51
2019-01-27T10:06:05.724Z,62.59
2019-01-27T10:09:01.231Z,63.17
2019-01-27T10:11:55.330Z,64.28
2019-01-27T10:14:44.587Z,62.31
2019-01-27T10:17:34.282Z,60.95
2019-01-27T10:20:32.989Z,61.03
2019-01-27T10:23:21.534Z,61.41
2019-01-27T10:26:11.247Z,62.44
2019-01-27T10:28:53.374Z,63.37
2019-01-27T10:31:37.875Z,64.63
2019-01-27T10:34:33.446Z,64.87
2019-01-27T10:37:33.859Z,62.52
2019-01-27T10:40:27.497Z,58.52
2019-01-27T10:43:12.943Z,57.64
2019-01-27T10:46:14.720Z,55.63
2019-01-27T10:48:54.371Z,57.25
2019-01-27T10:51:31.208Z,55.82
2019-01-27T10:54:20.023Z,48.81
2019-01-27T10:57:15.542Z,44.38
2019-01-27T11:00:07.672Z,40.18
2019-01-27T11:03:00.241Z,39.05
2019-01-27T11:05:55.845Z,39.25
2019-01-27T11:08:42.994Z,43.98
2019-01-27T11:11:31.249Z,43.38
2019-01-27T11:14:21.084Z,45.27
2019-01-27T11:17:12.045Z,47.09
2019-01-27T11:20:04.392Z,49.49
2019-01-27T11:22:59.892Z,49.55
2019-01-27T11:25:38.805Z,50.62
2019-01-27T11:28:24.301Z,52.12
2019-01-27T11:31:07.480Z,52.21
2019-01-27T11:34:00.181Z,52.72
2019-01-27T11:36:52.878Z,51.35
2019-01-27T11:39:54.855Z,48.26
2019-01-27T11:42:44.441Z,46.24
2019-01-27T11:54:41.947Z,49.90
2019-01-27T11:57:12.379Z,50.18
2019-01-27T11:59:43.216Z,48.94
2019-01-27T12:02:13.634Z,45.11
2019-01-27T12:04:44.476Z,47.35
2019-01-27T12:07:15.038Z,47.50
2019-01-27T12:09:45.450Z,49.92
2019-01-27T12:12:16.325Z,49.18
2019-01-27T12:14:46.999Z,51.60
2019-01-27T12:17:17.772Z,51.61
2019-01-27T12:19:48.232Z,52.85
2019-01-27T12:22:18.962Z,53.37
2019-01-27T12:24:49.326Z,53.46
2019-01-27T12:27:19.761Z,53.43
2019-01-27T12:29:50.172Z,54.67
2019-01-27T12:32:20.862Z,54.45
2019-01-27T12:34:51.660Z,55.86
2019-01-27T12:37:22.399Z,56.23
2019-01-27T12:39:52.814Z,55.74
2019-01-27T12:42:23.880Z,55.47
2019-01-27T12:44:54.778Z,54.98
2019-01-27T12:47:25.115Z,55.40
2019-01-27T12:49:55.526Z,56.50
2019-01-27T12:52:25.973Z,55.26
2019-01-27T12:54:56.443Z,55.06
2019-01-27T12:57:27.083Z,54.98
2019-01-27T12:59:57.635Z,57.18
2019-01-27T13:02:28.120Z,57.19
2019-01-27T13:04:58.509Z,57.58
2019-01-27T13:07:28.797Z,57.14
2019-01-27T13:09:59.034Z,57.26
2019-01-27T13:12:29.782Z,56.51
2019-01-27T13:15:00.250Z,52.45
2019-01-27T13:17:30.549Z,48.61
2019-01-27T13:20:01.534Z,45.64
2019-01-27T13:22:32.529Z,43.97
2019-01-27T13:25:02.988Z,45.59
2019-01-27T13:27:33.335Z,46.75
2019-01-27T13:30:04.055Z,47.73
2019-01-27T13:32:34.546Z,47.78
2019-01-27T13:35:05.399Z,48.04
2019-01-27T13:37:35.706Z,49.71
2019-01-27T13:40:09.102Z,51.37
2019-01-27T13:42:39.828Z,52.98
2019-01-27T13:45:12.044Z,52.22
2019-01-27T13:47:42.485Z,52.07
2019-01-27T13:50:13.398Z,49.35
2019-01-27T13:52:43.943Z,46.43
2019-01-27T13:55:24.299Z,44.74
2019-01-27T13:57:54.914Z,44.84
2019-01-27T14:00:30.150Z,44.58
2019-01-27T14:03:00.964Z,43.54
2019-01-27T14:05:31.334Z,43.75
2019-01-27T14:08:01.605Z,44.90
2019-01-27T14:10:32.511Z,45.77
2019-01-27T14:13:03.240Z,45.64
2019-01-27T14:15:34.884Z,48.13
2019-01-27T14:18:07.081Z,47.85
2019-01-27T14:20:37.952Z,48.35
2019-01-27T14:23:08.399Z,49.75
2019-01-27T14:25:38.882Z,50.64
2019-01-27T14:28:09.563Z,51.28
2019-01-27T14:30:42.393Z,51.83
2019-01-27T14:33:12.888Z,52.53
2019-01-27T14:35:43.746Z,52.74
2019-01-27T14:38:13.974Z,52.45
2019-01-27T14:40:44.496Z,52.58
2019-01-27T14:43:14.959Z,53.01
2019-01-27T14:45:45.358Z,53.76
2019-01-27T14:48:15.797Z,54.39
2019-01-27T14:50:51.267Z,53.57
2019-01-27T14:53:21.753Z,54.08
2019-01-27T14:55:52.512Z,53.43
2019-01-27T14:58:23.213Z,53.30
2019-01-27T15:00:53.796Z,53.69
2019-01-27T15:03:24.472Z,53.79
2019-01-27T15:05:55.229Z,54.40
2019-01-27T15:08:25.657Z,54.57
2019-01-27T15:10:55.980Z,54.88
2019-01-27T15:13:26.388Z,54.92
2019-01-27T15:15:57.647Z,55.14
2019-01-27T15:18:28.154Z,55.31
2019-01-27T15:21:05.621Z,55.12
2019-01-27T15:23:35.875Z,54.78
2019-01-27T15:26:06.088Z,55.63
2019-01-27T15:28:36.780Z,56.00
2019-01-27T15:31:07.509Z,56.66
2019-01-27T15:33:37.784Z,57.45
2019-01-27T15:36:08.430Z,56.98
2019-01-27T15:38:38.774Z,56.82
2019-01-27T15:41:10.367Z,57.80
2019-01-27T15:43:40.957Z,57.84
2019-01-27T15:46:11.529Z,58.35
2019-01-27T15:48:41.931Z,59.30
2019-01-27T15:51:12.787Z,59.37
2019-01-27T15:53:43.373Z,59.47
2019-01-27T15:56:14.094Z,60.23
2019-01-27T15:58:44.657Z,59.94
2019-01-27T16:01:15.878Z,60.71
2019-01-27T16:03:47.006Z,61.85
2019-01-27T16:06:18.039Z,61.18
2019-01-27T16:08:48.483Z,61.40
2019-01-27T16:11:19.841Z,63.09
2019-01-27T16:13:51.023Z,63.50
2019-01-27T16:16:21.679Z,64.18
2019-01-27T16:18:58.771Z,64.63
2019-01-27T16:21:24.980Z,65.02
2019-01-27T16:23:57.912Z,65.60
2019-01-27T16:26:28.294Z,67.00
2019-01-27T16:29:00.501Z,66.92
2019-01-27T16:31:48.290Z,68.32
2019-01-27T16:34:28.125Z,69.57
2019-01-27T16:36:58.606Z,69.17
2019-01-27T16:39:30.511Z,69.80
2019-01-27T16:42:03.368Z,71.46
2019-01-27T16:44:34.407Z,70.79
2019-01-27T16:47:05.253Z,71.83
2019-01-27T16:49:36.763Z,71.99
2019-01-27T16:52:07.579Z,72.86
2019-01-27T16:54:38.934Z,73.78
2019-01-27T16:57:09.785Z,74.35
2019-01-27T16:59:41.473Z,74.68
2019-01-27T17:02:12.211Z,75.11
2019-01-27T17:04:42.460Z,76.14
2019-01-27T17:07:15.065Z,76.61
2019-01-27T17:09:47.543Z,76.61
2019-01-27T17:12:17.803Z,77.20
2019-01-27T17:14:48.208Z,78.07
2019-01-27T17:17:18.871Z,77.73
2019-01-27T17:19:49.291Z,77.84
2019-01-27T17:22:19.726Z,77.89
2019-01-27T17:24:50.475Z,77.67
2019-01-27T17:27:21.032Z,77.69
2019-01-27T17:29:51.644Z,77.91
2019-01-27T17:32:22.122Z,78.02
2019-01-27T17:34:52.337Z,78.23
2019-01-27T17:37:22.762Z,78.16
2019-01-27T17:39:53.351Z,77.88
2019-01-27T17:42:23.844Z,77.74
2019-01-27T17:44:54.412Z,78.32
2019-01-27T17:47:24.986Z,78.40
2019-01-27T17:49:55.479Z,79.54
2019-01-27T17:52:25.789Z,80.24
2019-01-27T17:54:56.469Z,80.12
2019-01-27T17:57:40.391Z,81.10
2019-01-27T18:00:37.454Z,80.20
2019-01-27T18:03:33.133Z,80.55
2019-01-27T18:06:14.608Z,79.79
2019-01-27T18:09:10.261Z,79.68
2019-01-27T18:12:02.612Z,80.03
2019-01-27T18:14:36.595Z,79.85
2019-01-27T18:17:07.311Z,79.45
2019-01-27T18:19:38.251Z,79.99
2019-01-27T18:22:11.114Z,80.09
2019-01-27T18:24:41.651Z,80.34
2019-01-27T18:27:12.273Z,80.37
2019-01-27T18:29:43.053Z,81.07
2019-01-27T18:32:13.515Z,81.01
2019-01-27T18:34:44.110Z,81.23
2019-01-27T18:37:14.929Z,81.78
2019-01-27T18:39:45.789Z,81.82
2019-01-27T18:42:16.177Z,81.76
2019-01-27T18:44:47.035Z,81.38
2019-01-27T18:47:17.653Z,81.92
2019-01-27T18:49:48.150Z,81.75
2019-01-27T18:52:18.792Z,81.75
2019-01-27T18:55:16.550Z,81.32
2019-01-27T18:58:05.050Z,81.05
2019-01-27T19:00:53.115Z,81.07
2019-01-27T19:03:58.893Z,81.08
2019-01-27T19:06:51.401Z,81.27
2019-01-27T19:09:39.702Z,81.46
2019-01-27T19:12:28.353Z,81.61
2019-01-27T19:15:27.011Z,81.60
2019-01-27T19:18:16.705Z,81.54
2019-01-27T19:20:55.837Z,82.03
2019-01-27T19:24:00.966Z,82.03
2019-01-27T19:27:03.945Z,82.07
2019-01-27T19:30:09.049Z,82.26
2019-01-27T19:33:01.790Z,82.71
2019-01-27T19:36:00.587Z,82.43
2019-01-27T19:38:55.765Z,83.04
2019-01-27T19:41:31.801Z,82.98
2019-01-27T19:44:24.234Z,82.77
2019-01-27T19:47:16.633Z,83.04
2019-01-27T19:50:07.174Z,83.09
2019-01-27T19:52:59.572Z,83.06
2019-01-27T19:55:45.168Z,83.45
2019-01-27T19:58:33.159Z,83.64
2019-01-27T20:01:24.530Z,83.46
2019-01-27T20:04:16.634Z,83.68
2019-01-27T20:07:06.410Z,84.39
2019-01-27T20:09:54.127Z,84.93
2019-01-27T20:12:53.951Z,84.57
2019-01-27T20:15:55.586Z,84.58
2019-01-27T20:18:54.542Z,84.29
2019-01-27T20:21:53.267Z,84.68
2019-01-27T20:24:43.131Z,84.24
2019-01-27T20:27:37.077Z,83.01
2019-01-27T20:30:30.260Z,82.67
2019-01-27T20:33:19.233Z,82.02
2019-01-27T20:36:08.331Z,82.03
2019-01-27T20:39:03.428Z,82.35
2019-01-27T20:41:54.283Z,82.87
2019-01-27T20:44:41.729Z,82.74
2019-01-27T20:47:28.522Z,82.39
2019-01-27T20:50:09.182Z,81.68
2019-01-27T20:52:55.349Z,81.48
2019-01-27T20:55:42.037Z,80.56
2019-01-27T20:58:31.769Z,80.62
2019-01-27T21:01:07.912Z,80.56
2019-01-27T21:03:54.726Z,80.64
2019-01-27T21:06:45.301Z,80.33
2019-01-27T21:09:38.171Z,80.10
2019-01-27T21:12:24.005Z,80.14
2019-01-27T21:15:10.122Z,80.25
2019-01-27T21:18:01.318Z,79.97
2019-01-27T21:20:32.254Z,79.71
2019-01-27T21:23:02.843Z,79.71
2019-01-27T21:25:33.205Z,79.54
2019-01-27T21:28:04.969Z,79.25
2019-01-27T21:30:35.311Z,79.07
2019-01-27T21:33:06.114Z,79.34
2019-01-27T21:35:37.807Z,79.64
2019-01-27T21:38:08.054Z,78.76
2019-01-27T21:40:38.675Z,78.29
2019-01-27T21:43:09.133Z,77.99
2019-01-27T21:45:39.629Z,78.15
2019-01-27T21:48:09.997Z,78.17
2019-01-27T21:50:40.873Z,78.44
2019-01-27T21:53:11.260Z,77.78
2019-01-27T21:55:41.779Z,77.83
2019-01-27T21:58:12.326Z,76.54
2019-01-27T22:00:42.686Z,76.95
2019-01-27T22:03:12.891Z,76.54
2019-01-27T22:05:44.098Z,77.59
2019-01-27T22:08:14.432Z,76.78
2019-01-27T22:10:44.653Z,77.23
2019-01-27T22:13:14.862Z,77.19
2019-01-27T22:15:45.673Z,77.82
2019-01-27T22:18:16.009Z,78.01
2019-01-27T22:20:46.377Z,77.92
2019-01-27T22:23:16.571Z,78.02
2019-01-27T22:25:47.124Z,77.93
2019-01-27T22:28:17.854Z,78.10
2019-01-27T22:30:48.063Z,78.26
2019-01-27T22:33:18.240Z,78.37
2019-01-27T22:35:48.412Z,78.78
2019-01-27T22:38:18.576Z,79.27
2019-01-27T22:40:49.239Z,78.71
2019-01-27T22:43:19.685Z,78.48
2019-01-27T22:45:50.145Z,78.14
2019-01-27T22:48:20.401Z,78.23
2019-01-27T22:50:50.750Z,78.12
2019-01-27T22:53:20.986Z,78.45
2019-01-27T22:55:51.466Z,78.32
2019-01-27T22:58:21.819Z,78.61
2019-01-27T23:01:01.286Z,78.24
2019-01-27T23:03:43.588Z,78.84
2019-01-27T23:06:14.000Z,78.77
2019-01-27T23:08:44.179Z,78.80
2019-01-27T23:11:14.427Z,78.76
2019-01-27T23:13:44.931Z,79.18
2019-01-27T23:16:15.435Z,79.29
2019-01-27T23:18:48.943Z,79.64
2019-01-27T23:21:19.217Z,79.69
2019-01-27T23:23:49.605Z,79.81
2019-01-27T23:26:20.386Z,80.25
2019-01-27T23:28:50.620Z,80.12
2019-01-27T23:31:20.893Z,80.28
2019-01-27T23:33:51.237Z,80.22
2019-01-27T23:36:21.377Z,80.62
2019-01-27T23:38:51.646Z,81.69
2019-01-27T23:41:22.006Z,82.20
2019-01-27T23:43:52.485Z,82.15
2019-01-27T23:46:23.059Z,82.49
2019-01-27T23:48:53.316Z,82.25
2019-01-27T23:51:23.461Z,82.16
2019-01-27T23:53:53.561Z,82.19
2019-01-27T23:56:23.908Z,81.75
2019-01-27T23:58:54.106Z,81.60
